Time;durP1;ratioP1;P1;durP2;ratioP2;P2;SDS_P1;SDS_P2;PMS_P1;PMS_P2;Temp;Humidity;BMP_temperature;BMP_pressure;BME280_temperature;BME280_humidity;BME280_pressure;Samples;Min_cycle;Max_cycle;Signal;HPM_P1;HPM_P2
2022/08/30 00:01:28;;;;;;;6.97;3.67;;;15.10;99.90;;;;;;5062932;28;20038;-78
2022/08/30 00:03:54;;;;;;;8.88;3.53;;;15.10;99.90;;;;;;5016440;27;20043;-78
2022/08/30 00:06:21;;;;;;;5.70;2.83;;;15.20;99.90;;;;;;4956710;28;20045;-80
2022/08/30 00:08:48;;;;;;;7.10;3.40;;;15.10;99.90;;;;;;4979508;28;20042;-79
2022/08/30 00:11:22;;;;;;;8.13;3.28;;;15.10;99.90;;;;;;4973963;28;20066;-78
2022/08/30 00:13:49;;;;;;;6.35;3.58;;;15.10;99.90;;;;;;4975117;28;20050;-77
2022/08/30 00:16:16;;;;;;;9.52;4.05;;;15.10;99.90;;;;;;4975563;28;20053;-79
2022/08/30 00:18:43;;;;;;;13.43;3.90;;;15.10;99.90;;;;;;4958519;28;20062;-78
2022/08/30 00:21:10;;;;;;;11.05;3.70;;;15.00;99.90;;;;;;4970206;28;20068;-78
2022/08/30 00:23:37;;;;;;;6.22;3.63;;;14.90;99.90;;;;;;4956403;28;20047;-77
2022/08/30 00:26:03;;;;;;;5.38;3.55;;;14.80;99.90;;;;;;4973219;28;20529;-78
2022/08/30 00:28:30;;;;;;;8.00;4.15;;;14.90;99.90;;;;;;4968876;28;20059;-81
2022/08/30 00:30:56;;;;;;;7.07;4.60;;;14.90;99.90;;;;;;4969877;28;20043;-81
2022/08/30 00:33:22;;;;;;;7.03;4.28;;;14.80;99.90;;;;;;4973416;28;20069;-79
2022/08/30 00:35:48;;;;;;;11.95;4.50;;;14.70;99.90;;;;;;4948557;28;21195;-80
2022/08/30 00:38:14;;;;;;;7.53;4.55;;;14.80;99.90;;;;;;4972250;28;20061;-77
2022/08/30 00:40:43;;;;;;;7.15;4.25;;;14.80;99.90;;;;;;4959305;28;20132;-80
2022/08/30 00:43:13;;;;;;;5.82;3.67;;;14.80;99.90;;;;;;4975348;28;20042;-77
2022/08/30 00:45:40;;;;;;;4.63;3.67;;;14.80;99.90;;;;;;5009306;28;20034;-76
2022/08/30 00:48:06;;;;;;;5.45;4.00;;;14.70;99.90;;;;;;4981417;28;20057;-78
2022/08/30 00:50:38;;;;;;;7.88;4.03;;;14.60;99.90;;;;;;4976172;28;20039;-80
2022/08/30 00:53:07;;;;;;;9.13;3.97;;;14.50;99.90;;;;;;4975505;28;20054;-78
2022/08/30 00:55:34;;;;;;;7.15;3.58;;;14.50;99.90;;;;;;4951246;28;20110;-79
2022/08/30 00:58:06;;;;;;;9.18;4.18;;;14.40;99.90;;;;;;4983938;28;20047;-77
2022/08/30 01:00:34;;;;;;;6.60;3.70;;;14.40;99.90;;;;;;4961522;28;20477;-78
2022/08/30 01:02:59;;;;;;;8.70;3.50;;;14.30;99.90;;;;;;4977030;28;20061;-78
2022/08/30 01:05:25;;;;;;;5.13;3.35;;;14.30;99.90;;;;;;4961854;28;20046;-78
2022/08/30 01:07:51;;;;;;;5.40;3.38;;;14.30;99.90;;;;;;4960470;28;21718;-77
2022/08/30 01:10:17;;;;;;;6.60;3.80;;;14.20;99.90;;;;;;4941802;28;20038;-79
2022/08/30 01:12:44;;;;;;;5.97;3.45;;;14.20;99.90;;;;;;4979865;28;20034;-79
2022/08/30 01:15:13;;;;;;;4.88;3.33;;;14.20;99.90;;;;;;4982938;28;20504;-80
2022/08/30 01:17:44;;;;;;;6.32;3.70;;;14.20;99.90;;;;;;4978510;28;20050;-78
2022/08/30 01:20:14;;;;;;;5.78;3.78;;;14.20;99.90;;;;;;4975895;28;20062;-78
2022/08/30 01:22:49;;;;;;;4.85;3.33;;;14.20;99.90;;;;;;4953843;28;20043;-77
2022/08/30 01:25:17;;;;;;;;;;;14.20;99.90;;;;;;4974122;28;20038;-79
2022/08/30 01:27:49;;;;;;;6.35;3.40;;;14.20;99.90;;;;;;4982631;28;19960;-79
2022/08/30 01:30:15;;;;;;;3.83;3.40;;;14.10;99.90;;;;;;4974167;28;20074;-78
2022/08/30 01:32:43;;;;;;;10.45;3.25;;;14.30;99.90;;;;;;4977957;28;20516;-80
2022/08/30 01:35:13;;;;;;;9.77;3.20;;;14.30;99.90;;;;;;4983279;28;20115;-79
2022/08/30 01:37:40;;;;;;;8.60;3.28;;;14.30;99.90;;;;;;4991450;28;20042;-78
2022/08/30 01:40:07;;;;;;;9.10;3.17;;;14.40;99.90;;;;;;4988336;28;20039;-79
2022/08/30 01:42:33;;;;;;;7.53;2.97;;;14.50;99.90;;;;;;4972133;28;20118;-80
2022/08/30 01:44:58;;;;;;;5.05;2.80;;;14.50;99.90;;;;;;4964843;28;20113;-78
2022/08/30 01:47:25;;;;;;;8.55;3.10;;;14.50;99.90;;;;;;4978943;28;20515;-80
2022/08/30 01:49:50;;;;;;;6.57;2.53;;;14.60;99.90;;;;;;4975567;28;20103;-79
2022/08/30 01:52:16;;;;;;;6.95;2.92;;;14.60;99.90;;;;;;4952520;28;20082;-78
2022/08/30 01:54:44;;;;;;;7.25;3.35;;;14.60;99.90;;;;;;4957658;28;20460;-79
2022/08/30 01:57:14;;;;;;;8.90;3.38;;;14.70;99.90;;;;;;4964080;28;20046;-80
2022/08/30 01:59:42;;;;;;;7.60;3.08;;;14.70;99.90;;;;;;4962647;28;20046;-77
2022/08/30 02:02:08;;;;;;;5.78;3.13;;;14.70;99.90;;;;;;4982687;28;20032;-79
2022/08/30 02:04:35;;;;;;;6.15;3.22;;;14.70;99.90;;;;;;5049438;28;20050;-77
2022/08/30 02:07:02;;;;;;;5.22;3.13;;;14.70;99.90;;;;;;5058182;28;20042;-80
2022/08/30 02:09:28;;;;;;;8.10;3.30;;;14.70;99.90;;;;;;5087500;28;20442;-77
2022/08/30 02:11:55;;;;;;;8.70;3.50;;;14.70;99.90;;;;;;5078518;28;20103;-78
2022/08/30 02:14:21;;;;;;;5.55;3.42;;;14.80;99.90;;;;;;5078701;28;20054;-78
2022/08/30 02:16:47;;;;;;;5.13;3.38;;;14.80;99.90;;;;;;5046942;28;20042;-78
2022/08/30 02:19:13;;;;;;;4.47;3.40;;;14.70;99.90;;;;;;5056675;28;20053;-79
2022/08/30 02:21:39;;;;;;;7.65;3.67;;;14.70;99.90;;;;;;5062757;28;20038;-79
2022/08/30 02:24:06;;;;;;;6.85;3.65;;;14.70;99.90;;;;;;5065392;28;20099;-78
2022/08/30 02:26:35;;;;;;;7.22;3.92;;;14.70;99.90;;;;;;5053708;28;20178;-80
2022/08/30 02:29:04;;;;;;;8.90;3.90;;;14.80;99.90;;;;;;5059387;28;20138;-77
2022/08/30 02:31:30;;;;;;;9.63;3.78;;;14.90;99.90;;;;;;5058540;28;20048;-82
2022/08/30 02:33:56;;;;;;;8.02;3.90;;;14.70;99.90;;;;;;5043870;28;20462;-78
2022/08/30 02:36:22;;;;;;;9.32;4.03;;;14.70;99.90;;;;;;5046821;28;20041;-79
2022/08/30 02:38:49;;;;;;;8.77;3.70;;;14.80;99.90;;;;;;5046957;28;20038;-79
2022/08/30 02:41:16;;;;;;;8.80;4.00;;;14.80;99.90;;;;;;5071765;27;20128;-79
2022/08/30 02:43:42;;;;;;;7.93;3.60;;;14.80;99.90;;;;;;5047072;28;20478;-80
2022/08/30 02:46:08;;;;;;;6.40;3.78;;;14.80;99.90;;;;;;5065990;28;20188;-79
2022/08/30 02:48:35;;;;;;;8.60;3.45;;;14.70;99.90;;;;;;5080496;27;20393;-77
2022/08/30 02:51:07;;;;;;;7.95;3.63;;;14.70;99.90;;;;;;5045942;28;20523;-79
2022/08/30 02:53:32;;;;;;;6.55;3.60;;;14.70;99.90;;;;;;5057512;28;20050;-79
2022/08/30 02:55:58;;;;;;;10.50;4.13;;;14.60;99.90;;;;;;5043162;28;20047;-77
2022/08/30 02:58:24;;;;;;;5.43;3.67;;;14.70;99.90;;;;;;5061631;28;20050;-77
2022/08/30 03:00:50;;;;;;;5.72;3.35;;;14.60;99.90;;;;;;5045213;28;20054;-78
2022/08/30 03:03:16;;;;;;;7.88;3.70;;;14.60;99.90;;;;;;5094201;27;20046;-80
2022/08/30 03:05:42;;;;;;;5.55;3.40;;;14.60;99.90;;;;;;5093849;27;20158;-78
2022/08/30 03:08:08;;;;;;;7.03;3.60;;;14.50;99.90;;;;;;5094919;27;20446;-79
2022/08/30 03:10:34;;;;;;;5.57;3.25;;;14.60;99.90;;;;;;5058775;28;20038;-77
2022/08/30 03:13:00;;;;;;;5.70;3.55;;;14.60;99.90;;;;;;4979732;28;20061;-77
2022/08/30 03:15:26;;;;;;;5.90;3.42;;;14.50;99.90;;;;;;5047637;28;20069;-78
2022/08/30 03:17:53;;;;;;;10.45;3.70;;;14.50;99.90;;;;;;5045111;28;20104;-77
2022/08/30 03:20:20;;;;;;;7.18;3.75;;;14.50;99.90;;;;;;5077701;27;20057;-80
2022/08/30 03:22:45;;;;;;;9.50;4.05;;;14.50;99.90;;;;;;5053050;28;20046;-76
2022/08/30 03:25:11;;;;;;;5.57;3.97;;;14.50;99.90;;;;;;5075566;28;20601;-79
2022/08/30 03:27:37;;;;;;;7.80;4.30;;;14.50;99.90;;;;;;5055679;28;20063;-78
2022/08/30 03:30:04;;;;;;;6.97;4.03;;;14.40;99.90;;;;;;5065301;28;20046;-79
2022/08/30 03:32:29;;;;;;;10.05;3.90;;;14.50;99.90;;;;;;5071426;28;20383;-77
2022/08/30 03:34:55;;;;;;;10.60;4.47;;;14.40;99.90;;;;;;5072402;28;20055;-80
2022/08/30 03:37:21;;;;;;;11.82;4.30;;;14.40;99.90;;;;;;5045162;28;20057;-78
2022/08/30 03:39:47;;;;;;;9.25;4.28;;;14.30;99.90;;;;;;5065826;28;20061;-79
2022/08/30 03:42:14;;;;;;;10.48;5.03;;;14.40;99.90;;;;;;5061583;28;20048;-79
2022/08/30 03:44:39;;;;;;;10.90;4.85;;;14.30;99.90;;;;;;5047978;28;20137;-80
2022/08/30 03:47:06;;;;;;;9.25;5.10;;;14.30;99.90;;;;;;5070913;28;20152;-81
2022/08/30 03:49:33;;;;;;;8.48;4.70;;;14.20;99.90;;;;;;5090396;27;20103;-78
2022/08/30 03:51:58;;;;;;;9.00;5.20;;;14.20;99.90;;;;;;5018627;28;20504;-82
2022/08/30 03:54:24;;;;;;;13.30;5.55;;;14.20;99.90;;;;;;5064380;28;20050;-82
2022/08/30 03:56:50;;;;;;;7.18;5.00;;;14.20;99.90;;;;;;5031721;28;20080;-79
2022/08/30 03:59:16;;;;;;;11.65;5.85;;;14.10;99.90;;;;;;5040838;28;20046;-82
2022/08/30 04:01:41;;;;;;;8.90;5.50;;;14.00;99.90;;;;;;5076088;28;20045;-79
2022/08/30 04:04:10;;;;;;;13.27;6.45;;;14.00;99.90;;;;;;4997997;28;20057;-83
2022/08/30 04:06:38;;;;;;;9.75;6.15;;;13.90;99.90;;;;;;5047456;28;20042;-83
2022/08/30 04:09:05;;;;;;;10.13;6.05;;;13.90;99.90;;;;;;5043188;28;20049;-79
2022/08/30 04:11:30;;;;;;;8.35;6.22;;;13.80;99.90;;;;;;5046696;28;20034;-79
2022/08/30 04:13:56;;;;;;;11.02;6.90;;;13.80;99.90;;;;;;5077630;28;20438;-79
2022/08/30 04:16:23;;;;;;;10.73;5.80;;;13.80;99.90;;;;;;5092876;27;20069;-82
2022/08/30 04:18:49;;;;;;;11.00;5.88;;;13.80;99.90;;;;;;5063126;28;20034;-78
2022/08/30 04:21:16;;;;;;;14.88;5.75;;;13.90;99.90;;;;;;5092535;28;20610;-82
2022/08/30 04:23:42;;;;;;;11.18;5.90;;;13.70;99.90;;;;;;5074305;28;20054;-81
2022/08/30 04:26:09;;;;;;;12.30;5.57;;;13.70;99.90;;;;;;5093196;28;20040;-79
2022/08/30 04:28:35;;;;;;;26.58;5.13;;;13.70;99.90;;;;;;5046209;28;20127;-79
2022/08/30 04:31:10;;;;;;;11.18;5.82;;;13.70;99.90;;;;;;5073401;28;20038;-79
2022/08/30 04:33:37;;;;;;;8.23;5.10;;;13.70;99.90;;;;;;5063172;28;20054;-80
2022/08/30 04:36:05;;;;;;;6.88;5.00;;;13.60;99.90;;;;;;5026459;28;20084;-78
2022/08/30 04:38:32;;;;;;;12.02;5.30;;;13.60;99.90;;;;;;5046652;28;20044;-81
2022/08/30 04:40:58;;;;;;;10.40;5.07;;;13.50;99.90;;;;;;5044697;28;20038;-82
2022/08/30 04:43:25;;;;;;;6.15;4.60;;;13.40;99.90;;;;;;5056701;28;20049;-80
2022/08/30 04:45:56;;;;;;;9.20;4.93;;;13.40;99.90;;;;;;4992977;28;20136;-81
2022/08/30 04:48:22;;;;;;;6.10;4.80;;;13.40;99.90;;;;;;5062592;28;20046;-80
2022/08/30 04:50:48;;;;;;;6.55;4.20;;;13.30;99.90;;;;;;5052948;28;20049;-80
2022/08/30 04:53:15;;;;;;;10.05;4.70;;;13.30;99.90;;;;;;5049961;28;20162;-82
2022/08/30 04:55:42;;;;;;;11.38;4.30;;;13.30;99.90;;;;;;5063887;28;20057;-79
2022/08/30 04:58:09;;;;;;;7.60;3.88;;;13.30;99.90;;;;;;5044993;28;20041;-79
2022/08/30 05:00:36;;;;;;;6.93;4.10;;;13.30;99.90;;;;;;5063260;28;20045;-80
2022/08/30 05:03:02;;;;;;;9.70;4.10;;;13.10;99.90;;;;;;5062448;28;20058;-78
2022/08/30 05:05:48;;;;;;;7.20;3.90;;;13.20;99.90;;;;;;5079149;28;20049;-76
2022/08/30 05:08:17;;;;;;;8.82;4.03;;;13.20;99.90;;;;;;5082250;28;20034;-77
2022/08/30 05:10:46;;;;;;;10.45;3.70;;;13.20;99.90;;;;;;5080142;28;20057;-79
2022/08/30 05:13:17;;;;;;;6.75;3.17;;;13.20;99.90;;;;;;5082787;28;20045;-82
2022/08/30 05:15:43;;;;;;;7.97;3.30;;;13.20;99.90;;;;;;5013705;28;20097;-80
2022/08/30 05:18:09;;;;;;;6.60;3.47;;;13.50;99.90;;;;;;5052825;28;20186;-77
2022/08/30 05:20:37;;;;;;;6.95;3.33;;;13.60;99.90;;;;;;5043393;28;20046;-76
2022/08/30 05:23:04;;;;;;;8.98;3.20;;;13.90;99.90;;;;;;5055463;28;20485;-84
2022/08/30 05:25:40;;;;;;;14.65;3.38;;;13.90;99.90;;;;;;5060056;28;20160;-83
2022/08/30 05:28:06;;;;;;;7.18;3.38;;;13.90;99.90;;;;;;5092485;27;20074;-83
2022/08/30 05:30:36;;;;;;;11.85;3.58;;;13.80;99.90;;;;;;5081557;28;20042;-82
2022/08/30 05:33:04;;;;;;;6.13;3.13;;;13.80;99.90;;;;;;5067119;28;20419;-88
2022/08/30 05:35:30;;;;;;;17.02;3.60;;;13.90;99.90;;;;;;5079744;28;20399;-82
2022/08/30 05:37:56;;;;;;;11.60;3.15;;;13.90;99.90;;;;;;5061913;28;20050;-83
2022/08/30 05:40:22;;;;;;;11.80;3.10;;;13.90;99.90;;;;;;5048714;28;20054;-79
2022/08/30 05:42:48;;;;;;;9.52;3.10;;;13.90;99.90;;;;;;4998976;28;20457;-81
2022/08/30 05:45:14;;;;;;;10.38;3.63;;;14.00;99.90;;;;;;5063183;28;20069;-83
2022/08/30 05:47:40;;;;;;;12.60;3.70;;;14.00;99.90;;;;;;5046434;28;20041;-83
2022/08/30 05:50:07;;;;;;;7.63;3.17;;;14.00;99.90;;;;;;5048215;28;20030;-83
2022/08/30 05:52:38;;;;;;;9.55;3.40;;;14.00;99.90;;;;;;5071077;28;20047;-81
2022/08/30 05:55:06;;;;;;;8.75;3.65;;;14.20;99.90;;;;;;5061439;28;20053;-83
2022/08/30 05:57:37;;;;;;;8.70;3.20;;;14.20;99.90;;;;;;5044208;28;20046;-82
2022/08/30 06:00:09;;;;;;;9.30;3.63;;;14.30;99.90;;;;;;5045014;28;20042;-83
2022/08/30 06:02:35;;;;;;;8.20;3.80;;;14.40;99.90;;;;;;5033758;28;20054;-81
2022/08/30 06:05:03;;;;;;;7.88;3.45;;;14.50;99.90;;;;;;4961292;28;21915;-79
2022/08/30 06:07:29;;;;;;;9.07;3.30;;;14.70;99.90;;;;;;4966565;28;21557;-80
2022/08/30 06:09:54;;;;;;;7.75;3.53;;;14.70;99.90;;;;;;4976838;28;20039;-80
2022/08/30 06:12:23;;;;;;;8.88;3.60;;;14.70;99.90;;;;;;4970205;28;20121;-79
2022/08/30 06:14:48;;;;;;;8.48;3.05;;;14.80;99.90;;;;;;4968412;28;20042;-79
2022/08/30 06:17:14;;;;;;;13.95;3.20;;;14.90;99.90;;;;;;4984829;28;20061;-80
2022/08/30 06:20:19;;;;;;;6.93;3.28;;;15.00;99.90;;;;;;4993463;28;20036;-78
2022/08/30 06:22:45;;;;;;;6.45;3.47;;;15.10;99.90;;;;;;4978506;28;20043;-78
2022/08/30 06:25:11;;;;;;;6.40;3.45;;;15.20;99.90;;;;;;4980092;28;20065;-79
2022/08/30 06:27:37;;;;;;;10.40;3.40;;;15.30;99.90;;;;;;4970355;28;20047;-80
2022/08/30 06:30:07;;;;;;;11.45;3.38;;;15.30;99.90;;;;;;4962603;28;20442;-80
2022/08/30 06:32:34;;;;;;;6.45;2.83;;;15.40;99.90;;;;;;4986611;28;20119;-85
2022/08/30 06:35:00;;;;;;;5.72;2.80;;;15.50;99.90;;;;;;4959978;28;20059;-82
2022/08/30 06:37:26;;;;;;;6.35;2.90;;;15.60;99.90;;;;;;4974743;28;20340;-81
2022/08/30 06:39:52;;;;;;;8.63;2.90;;;15.70;99.90;;;;;;4961285;28;20485;-80
2022/08/30 06:42:18;;;;;;;10.10;3.15;;;15.70;99.90;;;;;;4985775;28;20042;-84
2022/08/30 06:44:44;;;;;;;5.60;2.78;;;15.80;99.90;;;;;;4999132;28;20051;-80
2022/08/30 06:47:10;;;;;;;7.28;2.25;;;16.00;99.90;;;;;;4984908;28;20454;-80
2022/08/30 06:49:36;;;;;;;5.70;2.28;;;16.00;99.90;;;;;;4956957;28;20066;-79
2022/08/30 06:52:04;;;;;;;7.75;2.35;;;16.10;99.90;;;;;;4960926;28;20030;-80
2022/08/30 06:54:30;;;;;;;5.53;2.20;;;16.20;99.90;;;;;;4973058;28;20043;-80
2022/08/30 06:56:56;;;;;;;8.00;2.35;;;16.40;99.90;;;;;;4965820;28;20112;-81
2022/08/30 06:59:21;;;;;;;4.07;1.80;;;16.30;99.90;;;;;;4960853;28;20061;-81
2022/08/30 07:01:48;;;;;;;4.28;1.98;;;16.40;99.90;;;;;;4959660;28;20663;-82
2022/08/30 07:04:53;;;;;;;13.57;1.70;;;16.50;99.90;;;;;;4982016;28;20047;-79
2022/08/30 07:07:19;;;;;;;6.50;1.65;;;16.50;99.90;;;;;;4969159;28;20160;-79
2022/08/30 07:09:45;;;;;;;7.05;1.65;;;16.70;99.90;;;;;;5011782;28;20043;-80
2022/08/30 07:12:12;;;;;;;4.55;1.63;;;16.70;99.90;;;;;;4976539;28;20042;-79
2022/08/30 07:14:39;;;;;;;5.57;1.65;;;16.70;99.90;;;;;;4955258;28;20049;-79
2022/08/30 07:19:49;;;;;;;4.07;1.65;;;16.90;99.90;;;;;;4975026;28;20521;-78
2022/08/30 07:22:26;;;;;;;7.07;1.70;;;16.90;99.90;;;;;;4974881;28;20058;-80
2022/08/30 07:24:54;;;;;;;7.50;1.90;;;16.90;99.90;;;;;;4976004;28;20053;-81
2022/08/30 07:27:20;;;;;;;4.03;1.90;;;17.00;99.90;;;;;;4983127;28;20054;-81
2022/08/30 07:29:47;;;;;;;2.90;1.60;;;17.10;99.90;;;;;;4983315;28;20042;-80
2022/08/30 07:32:13;;;;;;;6.03;1.60;;;17.10;99.90;;;;;;4972830;28;20779;-80
2022/08/30 07:34:39;;;;;;;5.65;1.55;;;17.30;99.90;;;;;;4960535;28;20042;-78
2022/08/30 07:37:05;;;;;;;5.57;1.77;;;17.40;99.90;;;;;;4953574;28;20087;-81
2022/08/30 07:39:30;;;;;;;5.50;1.40;;;17.20;99.90;;;;;;4979902;28;20043;-79
2022/08/30 07:41:56;;;;;;;6.50;1.60;;;17.50;99.90;;;;;;4970254;28;20067;-76
2022/08/30 07:44:22;;;;;;;3.67;1.45;;;17.40;99.90;;;;;;4983512;28;20043;-77
2022/08/30 07:46:47;;;;;;;3.90;1.52;;;17.40;99.90;;;;;;4955404;28;20050;-79
2022/08/30 07:49:13;;;;;;;5.90;1.40;;;17.50;99.90;;;;;;4977670;28;20038;-77
2022/08/30 07:51:40;;;;;;;7.07;1.40;;;17.50;99.90;;;;;;4967765;28;20043;-78
2022/08/30 07:54:05;;;;;;;5.22;1.45;;;17.50;99.90;;;;;;4978048;28;20063;-77
2022/08/30 07:56:33;;;;;;;6.30;1.40;;;17.60;99.90;;;;;;4961060;28;20051;-78
2022/08/30 07:58:59;;;;;;;3.10;1.35;;;17.70;99.90;;;;;;4964708;28;20065;-78
2022/08/30 08:01:25;;;;;;;4.55;1.27;;;17.80;99.90;;;;;;4967411;28;20039;-79
2022/08/30 08:03:51;;;;;;;8.15;1.60;;;17.90;99.90;;;;;;5031193;28;20064;-77
2022/08/30 08:06:19;;;;;;;6.13;1.60;;;17.80;99.90;;;;;;5078561;28;20041;-79
2022/08/30 08:08:45;;;;;;;3.92;1.48;;;17.90;99.90;;;;;;5077515;28;20032;-78
2022/08/30 08:11:18;;;;;;;2.30;1.23;;;17.90;99.90;;;;;;5093243;28;20547;-75
2022/08/30 08:13:45;;;;;;;3.65;1.30;;;17.90;99.90;;;;;;5076193;28;20048;-78
2022/08/30 08:16:11;;;;;;;2.28;1.30;;;18.00;99.90;;;;;;5061248;28;20485;-77
2022/08/30 08:18:37;;;;;;;1.88;1.23;;;18.00;99.90;;;;;;5074492;28;20059;-76
2022/08/30 08:21:03;;;;;;;6.43;1.38;;;18.10;99.90;;;;;;5105917;28;20040;-77
2022/08/30 08:23:29;;;;;;;4.47;1.65;;;18.10;99.90;;;;;;5090768;28;20044;-78
2022/08/30 08:25:55;;;;;;;6.45;1.33;;;18.20;99.90;;;;;;5059770;28;20111;-76
2022/08/30 08:28:21;;;;;;;4.25;1.30;;;18.10;99.90;;;;;;5082523;28;20048;-76
2022/08/30 08:30:48;;;;;;;2.83;1.30;;;18.20;99.90;;;;;;5106568;28;20063;-75
2022/08/30 08:33:15;;;;;;;4.65;1.20;;;18.40;99.90;;;;;;5106574;28;20384;-77
2022/08/30 08:35:41;;;;;;;8.95;1.42;;;18.50;99.90;;;;;;5076072;28;20487;-76
2022/08/30 08:38:07;;;;;;;2.53;1.40;;;18.70;99.90;;;;;;5080807;28;20040;-76
2022/08/30 08:40:41;;;;;;;4.63;1.30;;;18.80;99.90;;;;;;5064347;28;20055;-76
2022/08/30 08:43:12;;;;;;;2.10;1.30;;;18.90;99.90;;;;;;5070136;28;20179;-78
2022/08/30 08:46:02;;;;;;;4.10;1.30;;;19.00;99.90;;;;;;5078977;28;20055;-75
2022/08/30 08:48:56;;;;;;;5.80;1.15;;;19.20;99.90;;;;;;5063458;28;20356;-75
2022/08/30 08:54:39;;;;;;;5.65;1.40;;;19.20;99.90;;;;;;5081349;28;20136;-77
2022/08/30 08:57:05;;;;;;;3.30;1.33;;;19.20;99.90;;;;;;5095438;28;20468;-79
2022/08/30 08:59:30;;;;;;;6.75;1.40;;;19.20;99.90;;;;;;5054526;28;20076;-79
2022/08/30 09:02:01;;;;;;;2.17;1.15;;;19.10;99.90;;;;;;5061362;28;20131;-77
2022/08/30 09:04:36;;;;;;;3.53;1.30;;;19.00;99.90;;;;;;5064551;28;20059;-77
2022/08/30 09:07:13;;;;;;;4.68;1.38;;;19.00;99.90;;;;;;5069261;28;20126;-78
2022/08/30 09:09:40;;;;;;;2.60;1.20;;;19.00;99.90;;;;;;5063163;28;20048;-78
2022/08/30 09:12:07;;;;;;;2.30;1.10;;;19.10;99.90;;;;;;5064440;28;20024;-77
2022/08/30 09:14:37;;;;;;;4.32;1.05;;;19.20;99.90;;;;;;5077087;28;20132;-78
2022/08/30 09:17:06;;;;;;;1.60;1.02;;;19.20;99.90;;;;;;5059680;28;20035;-79
2022/08/30 09:19:37;;;;;;;3.65;1.30;;;19.10;99.90;;;;;;5094135;28;20054;-78
2022/08/30 09:22:05;;;;;;;2.70;1.20;;;19.10;99.90;;;;;;5085757;28;20072;-77
2022/08/30 09:24:46;;;;;;;2.60;1.30;;;19.00;99.90;;;;;;5065076;28;20098;-77
2022/08/30 09:27:17;;;;;;;6.82;1.08;;;18.90;99.90;;;;;;5057755;28;20048;-76
2022/08/30 09:29:58;;;;;;;5.90;1.50;;;19.10;99.90;;;;;;5065586;28;20048;-77
2022/08/30 09:32:26;;;;;;;3.03;1.20;;;19.40;99.90;;;;;;5059277;28;20233;-79
2022/08/30 09:34:52;;;;;;;3.42;1.10;;;19.50;99.90;;;;;;5071448;28;20080;-76
2022/08/30 09:37:29;;;;;;;3.58;1.40;;;19.60;99.90;;;;;;5056468;28;20080;-78
2022/08/30 09:39:56;;;;;;;4.40;1.40;;;19.50;99.90;;;;;;5064070;28;20110;-78
2022/08/30 09:42:25;;;;;;;3.35;1.42;;;19.40;99.90;;;;;;5075485;28;20109;-78
2022/08/30 09:44:52;;;;;;;3.00;1.27;;;19.30;99.90;;;;;;5062834;28;20055;-79
2022/08/30 09:47:27;;;;;;;2.40;1.20;;;19.30;99.90;;;;;;5068518;28;20064;-78
2022/08/30 09:50:19;;;;;;;3.53;1.00;;;19.30;99.90;;;;;;5084140;28;20056;-77
2022/08/30 09:52:51;;;;;;;3.92;1.63;;;19.30;99.90;;;;;;5064871;28;20044;-76
2022/08/30 09:55:52;;;;;;;3.42;1.10;;;19.50;99.90;;;;;;5036266;28;20105;-77
2022/08/30 09:58:33;;;;;;;3.58;1.30;;;19.60;99.90;;;;;;5033108;28;20069;-76
2022/08/30 10:01:13;;;;;;;5.18;1.20;;;19.70;99.90;;;;;;5034971;28;20102;-75
2022/08/30 10:04:10;;;;;;;3.67;1.20;;;19.70;99.90;;;;;;4992029;28;20059;-75
2022/08/30 10:06:39;;;;;;;2.97;1.27;;;19.50;99.90;;;;;;4945678;28;20082;-76
2022/08/30 10:09:28;;;;;;;2.78;1.10;;;19.50;99.90;;;;;;4948905;28;20034;-76
2022/08/30 10:12:00;;;;;;;2.47;1.25;;;19.70;99.90;;;;;;4947332;28;20600;-76
2022/08/30 10:14:54;;;;;;;2.25;1.10;;;19.70;99.90;;;;;;4937587;28;20050;-76
2022/08/30 10:17:37;;;;;;;2.70;1.10;;;19.60;99.90;;;;;;4950436;28;20134;-75
2022/08/30 10:20:24;;;;;;;3.20;1.08;;;19.90;99.90;;;;;;4962776;28;20063;-77
2022/08/30 10:23:03;;;;;;;1.20;0.90;;;20.30;99.90;;;;;;4951919;28;20054;-76
2022/08/30 10:25:37;;;;;;;1.15;0.82;;;20.80;99.90;;;;;;4944975;28;20498;-76
2022/08/30 10:28:28;;;;;;;3.97;1.38;;;21.00;99.90;;;;;;4947941;28;20054;-76
2022/08/30 10:31:06;;;;;;;2.47;1.00;;;21.20;99.90;;;;;;4973879;28;20133;-74
2022/08/30 10:33:41;;;;;;;1.63;0.90;;;20.90;99.90;;;;;;5007368;28;20528;-76
2022/08/30 10:36:12;;;;;;;2.22;1.00;;;20.90;99.90;;;;;;4980346;28;20057;-76
2022/08/30 10:38:43;;;;;;;4.15;1.30;;;21.30;99.90;;;;;;4963684;28;20077;-78
2022/08/30 10:41:23;;;;;;;2.72;1.10;;;21.70;99.90;;;;;;4968958;28;20032;-75
2022/08/30 10:44:11;;;;;;;2.83;1.00;;;21.90;99.90;;;;;;4962436;28;20475;-75
2022/08/30 10:47:04;;;;;;;2.97;1.10;;;21.70;99.90;;;;;;4976721;28;20122;-75
2022/08/30 10:49:42;;;;;;;2.55;1.02;;;21.80;99.90;;;;;;4972042;28;20418;-74
2022/08/30 10:52:24;;;;;;;3.10;1.20;;;21.60;99.90;;;;;;4967612;28;20051;-76
2022/08/30 10:55:10;;;;;;;2.63;1.10;;;21.50;99.90;;;;;;4961227;28;20085;-77
2022/08/30 10:57:37;;;;;;;3.63;1.25;;;21.50;99.90;;;;;;4969481;28;20133;-76
2022/08/30 11:00:09;;;;;;;4.18;1.20;;;21.70;99.90;;;;;;4959915;28;20053;-76
2022/08/30 11:02:57;;;;;;;4.50;1.20;;;22.00;99.90;;;;;;4954000;28;20482;-77
2022/08/30 11:05:37;;;;;;;3.08;1.30;;;22.30;99.90;;;;;;5070292;28;20053;-79
2022/08/30 11:08:20;;;;;;;2.80;1.02;;;22.30;99.90;;;;;;5055476;28;20127;-77
2022/08/30 11:10:53;;;;;;;2.33;1.00;;;22.70;99.70;;;;;;5070917;28;20087;-77
2022/08/30 11:13:28;;;;;;;3.70;1.40;;;22.70;99.70;;;;;;5084343;28;20035;-77
2022/08/30 11:16:02;;;;;;;2.28;0.98;;;22.70;99.40;;;;;;5073006;28;20046;-79
2022/08/30 11:18:30;;;;;;;4.07;1.13;;;23.00;99.60;;;;;;5045618;28;20098;-75
2022/08/30 11:21:22;;;;;;;4.03;1.27;;;23.20;99.70;;;;;;5043671;28;20049;-74
2022/08/30 11:24:01;;;;;;;2.10;1.00;;;23.10;99.20;;;;;;5090537;27;20053;-77
2022/08/30 11:26:47;;;;;;;1.38;1.00;;;23.20;98.80;;;;;;5056773;28;20053;-74
2022/08/30 11:29:39;;;;;;;2.05;1.08;;;22.90;98.70;;;;;;5066921;28;20071;-77
2022/08/30 11:32:11;;;;;;;3.53;1.17;;;22.70;98.00;;;;;;5070660;28;20046;-76
2022/08/30 11:35:05;;;;;;;2.72;1.15;;;22.20;98.80;;;;;;5049485;28;20462;-75
2022/08/30 11:37:44;;;;;;;4.53;0.90;;;22.00;99.00;;;;;;5081034;28;20394;-77
2022/08/30 11:40:18;;;;;;;4.60;0.90;;;22.50;99.10;;;;;;5074962;28;20115;-78
2022/08/30 11:42:47;;;;;;;4.97;1.40;;;22.70;98.70;;;;;;5059986;28;20050;-75
2022/08/30 11:45:21;;;;;;;3.22;0.90;;;23.30;98.30;;;;;;5049174;28;20449;-79
2022/08/30 11:48:24;;;;;;;2.63;1.13;;;24.00;97.30;;;;;;5093598;27;20050;-76
2022/08/30 11:50:57;;;;;;;3.72;1.20;;;24.10;96.20;;;;;;5076921;28;20465;-79
2022/08/30 11:53:51;;;;;;;5.47;1.52;;;24.00;96.50;;;;;;5042455;28;20072;-80
2022/08/30 11:57:08;;;;;;;1.75;0.98;;;24.60;96.40;;;;;;5072508;28;20323;-79
2022/08/30 11:59:58;;;;;;;2.67;1.25;;;25.00;96.70;;;;;;5035315;28;20115;-78
2022/08/30 12:02:45;;;;;;;2.90;1.50;;;24.80;96.50;;;;;;5016399;28;20060;-77
2022/08/30 12:05:39;;;;;;;4.95;0.88;;;24.30;96.60;;;;;;5042954;28;20460;-78
2022/08/30 12:08:07;;;;;;;2.97;1.30;;;24.50;96.70;;;;;;5044031;28;20040;-77
2022/08/30 12:10:46;;;;;;;2.28;1.33;;;24.50;96.50;;;;;;5034747;28;20056;-77
2022/08/30 12:13:41;;;;;;;4.80;1.40;;;24.90;96.30;;;;;;5019067;28;20082;-75
2022/08/30 12:16:13;;;;;;;6.43;1.15;;;24.80;95.90;;;;;;5026898;28;20055;-79
2022/08/30 12:18:59;;;;;;;3.70;1.15;;;24.90;96.60;;;;;;5036951;28;20064;-75
2022/08/30 12:21:29;;;;;;;3.53;0.90;;;24.70;96.10;;;;;;5031576;28;20444;-76
2022/08/30 12:24:19;;;;;;;3.22;1.27;;;25.00;95.90;;;;;;5014257;28;20057;-77
2022/08/30 12:26:48;;;;;;;3.70;1.23;;;25.00;96.00;;;;;;5033080;28;20057;-81
2022/08/30 12:29:18;;;;;;;2.45;1.00;;;25.30;95.10;;;;;;5016468;28;20047;-76
2022/08/30 12:31:45;;;;;;;3.65;1.10;;;26.00;95.00;;;;;;5025001;28;20045;-79
2022/08/30 12:34:28;;;;;;;2.63;1.08;;;26.20;94.60;;;;;;5040732;28;20037;-78
2022/08/30 12:37:01;;;;;;;4.53;1.20;;;25.70;94.20;;;;;;5036699;28;20046;-78
2022/08/30 12:39:34;;;;;;;2.20;1.25;;;25.60;94.60;;;;;;5080353;28;20164;-79
2022/08/30 12:42:21;;;;;;;3.33;1.00;;;25.50;95.20;;;;;;5064377;28;20074;-78
2022/08/30 12:44:52;;;;;;;12.45;1.70;;;25.20;94.80;;;;;;5071532;28;21873;-75
2022/08/30 12:47:45;;;;;;;3.67;1.15;;;25.20;95.40;;;;;;5073159;28;20046;-80
2022/08/30 12:56:14;;;;;;;2.42;1.20;;;24.30;96.60;;;;;;5079629;27;20407;-78
2022/08/30 12:58:48;;;;;;;3.92;1.25;;;24.30;96.50;;;;;;5074094;28;20562;-78
2022/08/30 13:01:23;;;;;;;4.72;1.08;;;24.90;96.40;;;;;;5073277;28;20646;-77
2022/08/30 13:04:12;;;;;;;3.78;1.00;;;25.20;95.60;;;;;;5066620;28;20028;-79
2022/08/30 13:06:58;;;;;;;12.55;1.92;;;24.70;95.80;;;;;;5069018;28;20044;-78
2022/08/30 13:09:57;;;;;;;2.45;1.25;;;24.20;96.30;;;;;;5057632;28;20047;-79
2022/08/30 13:12:26;;;;;;;3.83;1.23;;;23.60;96.60;;;;;;5070372;28;20105;-75
2022/08/30 13:14:52;;;;;;;5.60;0.93;;;23.70;96.70;;;;;;5077051;28;20510;-77
2022/08/30 13:17:18;;;;;;;4.03;1.20;;;24.10;96.20;;;;;;5064058;28;20041;-77